Historyczne dane pomiarowe

Dodano dane terminowe – wersja testowa.

Dane z okresu 1951-2019

Wersja bazy: 1.34 [2019-03-16, lista zmian], aktualizacja planowana na 2019-04-15

Dane meteo z obszaru Polski uzyskane na podstawie danych udostępnionych przez Instytut Meteorologii i Gospodarki Wodnej – Państwowy Instytut Badawczy.

 

Wybierz Datę:    

       

TemperaturaWilgotnośćWiatrCiśnienieOpadyŚniegCzas trwania zjawisk
 Stacja t tx tn tng RH VA  wxwx mslp ppp RRR   cm mm wxwxwxwxwxwxwx
2019-07-31 21.9--- 74.9------- 0.0 0.0 0.0x- 7.8-------
2019-07-30 23.3 30.3 18.3 18.2 77.4 21.5- 2.3--1007.0 982.0 0.0 0.0 0.0x- 9.8-------
2019-07-29 22.1 31.4 18.3 17.4 80.1 21.0- 1.6--1005.5 980.4 3.2 3.2 0.0x- 6.9-------
2019-07-28 25.9 32.1 19.2 18.6 61.4 19.7- 2.6--1004.3 979.5 0.0 0.0 0.0x- 13.8-------
2019-07-27 22.1 28.0 15.1 14.3 65.1 16.9- 3.0--1007.7 982.5 0.0 0.0 0.0x- 11.3-------
2019-07-26 22.1 27.2 17.6 17.4 61.3 15.9- 2.5--1011.6 986.3 0.0 0.0 0.0x- 11.4-------
2019-07-25 21.9 28.1 15.5 15.1 67.5 16.9- 2.3--1017.9 992.5 0.0 0.0 0.0x- 13.7-------
2019-07-24 18.6 21.4 15.6 14.8 84.6 18.1- 1.6--1018.6 992.9 0.5 0.5 0.0x- 1.3-------
2019-07-23 18.3 22.1 16.6 16.8 76.6 16.1- 2.5--1019.3 993.5 0.0 0.0 0.0x- 1.4-------
2019-07-22 20.7 26.3 15.6 14.8 70.1 16.4- 2.6--1020.4 994.8 0.0 0.0 0.0x- 11.6-------
2019-07-21 20.1 27.8 16.1 15.7 83.6 19.4- 1.8--1017.5 991.9 17.7 17.6 0.1x- 7.6-------
2019-07-20 21.4 28.2 15.8 15.4 67.6 16.7- 1.9--1016.7 991.2 0.0 0.0 0.0x- 10.8-------
2019-07-19 20.0 27.9 11.7 9.5 56.9 12.6- 2.8--1014.8 989.3 1.3 0.0 1.3x- 9.3-------
2019-07-18 17.5 23.5 10.3 9.1 59.3 11.4- 2.1--1013.5 987.8 0.0 0.0 0.0x- 10.4-------
2019-07-17 15.4 21.4 9.5 8.9 67.5 11.4- 3.5--1011.1 985.3 0.0 0.0 0.0x- 5.8-------
2019-07-16 15.5 20.3 9.4 6.9 64.1 11.3- 3.4--1012.0 986.1 0.0 0.0 0.0x- 9.1-------
2019-07-15 16.6 23.4 9.2 8.5 58.3 10.5- 2.4--1012.8 987.1 0.0 0.0 0.0x- 12.9-------
2019-07-14 16.4 22.0 13.6 13.6 76.8 14.2- 2.5--1011.2 985.4 0.8 0.8 0.0x- 6.1-------
2019-07-13 17.4 24.4 12.3 11.8 71.0 13.8- 1.8--1009.6 984.0 0.6 0.0 0.6x- 3.4-------
2019-07-12 18.0 24.4 9.4 7.4 58.6 11.6- 2.0--1010.8 985.2 0.0 0.0 0.0x- 12.0-------
2019-07-11 14.7 19.6 11.5 11.0 71.4 11.8- 3.0--1011.6 985.7 0.0 0.0 0.0x- 7.9-------
2019-07-10 14.0 18.2 11.6 11.5 82.9 13.2- 3.0--1011.9 986.0 0.7 0.1 0.6x- 2.1-------
2019-07-09 14.2 20.0 8.8 8.2 64.9 10.4- 3.5--1012.8 986.8 2.9 2.3 0.6x- 6.0-------
2019-07-08 14.6 19.6 11.8 11.6 60.1 9.9- 3.1--1012.0 986.1 0.1 0.0 0.1x- 6.3-------
2019-07-07 17.3 22.2 14.7 14.5 69.1 13.6- 3.1--1006.5 981.0 0.0 0.0 0.0x- 7.4-------
2019-07-06 18.4 24.8 10.8 10.3 65.6 13.7- 2.3--1009.8 984.3 0.0 0.0 0.0x- 3.6-------
2019-07-05 16.6 21.8 10.3 9.7 57.6 10.6- 3.1--1013.6 987.8 0.0 0.0 0.0x- 1.4-------
2019-07-04 17.2 22.5 10.8 8.9 48.9 9.2- 2.5--1019.9 994.0 0.0 0.0 0.0x- 10.9-------
2019-07-03 16.9 21.9 12.6 11.9 52.8 9.8- 3.6--1018.8 992.9 0.0 0.0 0.0x- 13.9-------
2019-07-02 21.6 29.3 19.1 18.8 62.1 15.6- 3.4--1014.4 989.0 0.0 0.0 0.0x- 11.4-------
2019-07-01 26.5 35.5 19.1 18.7 59.9 19.4- 3.5--1011.6 986.7 0.9 0.0 0.9x- 12.8-------
2019-06-30 24.9 32.7 15.4 14.7 48.6 14.8- 3.1--1015.9 990.7 0.0 0.0 0.0x- 14.8-------
2019-06-29 19.3 25.9 10.6 10.1 52.9 11.3- 3.3--1019.9 994.1 0.0 0.0 0.0x- 14.5-------
2019-06-28 17.7 23.0 12.9 12.8 60.3 11.7- 4.0--1019.0 993.2 0.0 0.0 0.0x- 13.4-------
2019-06-27 23.3 29.0 21.5 21.4 61.5 17.6- 5.0--1015.5 990.2 0.0 0.0 0.0x- 12.6-------
2019-06-26 25.9 32.7 18.7 18.1 66.4 21.7- 2.8--1021.4 996.2 0.0 0.0 0.0x- 14.2-------
2019-06-25 24.4 30.3 17.8 16.3 63.8 19.0- 2.6--1025.41000.0 0.0 0.0 0.0x- 14.6-------
2019-06-24 21.0 25.8 14.7 14.4 69.6 17.0- 2.5--1023.7 998.0 0.0 0.0 0.0x- 11.2-------
2019-06-23 20.6 26.0 16.0 15.8 62.8 15.0- 3.3--1019.7 994.1 0.0 0.0 0.0x- 10.8-------
2019-06-22 20.3 25.3 15.8 15.1 79.1 18.5- 2.9--1019.5 993.9 0.0 0.0 0.0x- 7.5-------
2019-06-21 19.8 27.1 17.7 16.8 90.4 20.7- 2.9--1014.4 988.8 6.4 6.2 0.2x- 6.6-------
2019-06-20 21.8 28.1 17.4 16.7 82.5 21.2- 2.0--1011.5 986.2 1.1 0.1 1.0x- 10.1-------
2019-06-19 21.8 27.7 18.6 17.5 75.5 19.4- 2.6--1014.1 988.7 0.4 0.4 0.0x- 7.8-------
2019-06-18 19.9 24.4 13.9 13.6 76.4 17.5- 2.0--1019.3 993.7 0.0 0.0 0.0x- 9.3-------
2019-06-17 18.0 20.8 16.5 16.4 80.1 16.4- 2.9--1020.4 994.6 0.1 0.1 0.0x- 4.0-------
2019-06-16 24.1 30.7 19.7 19.0 69.3 20.1- 3.3--1014.1 989.0 1.6 1.4 0.2x- 10.9-------
2019-06-15 26.5 32.9 19.6 17.9 63.3 20.8- 2.1--1014.5 989.5 0.0 0.0 0.0x- 14.1-------
2019-06-14 24.8 29.6 19.1 18.3 69.1 21.3- 2.3--1017.4 992.2 0.0 0.0 0.0x- 10.6-------
2019-06-13 25.7 31.5 18.1 16.5 60.5 19.4- 3.0--1014.0 989.0 0.0 0.0 0.0x- 14.7-------
2019-06-12 25.4 31.4 18.2 16.8 61.0 19.1- 3.1--1013.9 988.8 0.0 0.0 0.0x- 14.6-------
2019-06-11 25.1 30.7 18.9 17.3 62.0 19.0- 2.9--1014.9 989.8 0.0 0.0 0.0x- 14.2-------
2019-06-10 23.6 29.2 16.4 15.5 64.1 18.4- 3.0--1018.6 993.2 0.0 0.0 0.0x- 13.4-------
2019-06-09 20.2 25.0 15.3 15.0 68.9 16.0- 2.9--1024.8 999.1 0.0 0.0 0.0x- 12.9-------
2019-06-08 21.6--- 78.4------- 2.3 0.0 2.3x- 12.8-------
2019-06-07 20.1 26.0 14.7 13.9 79.6 18.4- 2.1--1015.0 989.4 1.2 1.2 0.0x- 11.9-------
2019-06-06 20.9 26.0 15.7 14.8 72.1 17.4- 2.3--1013.1 987.7 0.0 0.0 0.0x- 11.7-------
2019-06-05 21.4 26.2 16.4 15.6 67.4 16.5- 3.3--1012.8 987.4 0.0 0.0 0.0x- 11.7-------
2019-06-04 21.2--- 69.1 17.1- 3.1--1015.1 989.7 1.9 1.9 0.0x- 12.9-------
2019-06-03 20.8 26.2 13.3 12.4 64.4 14.8- 2.5--1018.2 992.7 0.0 0.0 0.0x- 14.9-------
2019-06-02 19.4 26.1 13.2 12.5 68.5 14.7- 2.1--1019.2 993.5 0.0 0.0 0.0x- 12.4-------
68.4 ms

 

Źródłem pochodzenia danych jest Instytut Meteorologii i Gospodarki Wodnej – Państwowy Instytut Badawczy. Dane Instytutu Meteorologii i Gospodarki Wodnej – Państwowego Instytutu Badawczego zostały przetworzone.

Dane źródłowe można odnaleźć na stronie https://dane.imgw.pl